createdAt,value
2022-11-27T00:00:00.163Z,1027
2022-11-27T00:04:00.313Z,1027
2022-11-27T00:08:00.313Z,1027
2022-11-27T00:12:00.132Z,1027
2022-11-27T00:16:00.186Z,1027
2022-11-27T00:20:00.144Z,1027
2022-11-27T00:24:00.162Z,1027
2022-11-27T00:28:00.199Z,1027
2022-11-27T00:32:00.183Z,1027
2022-11-27T00:36:00.180Z,1027
2022-11-27T00:40:00.176Z,1027
2022-11-27T00:44:00.145Z,1027
2022-11-27T00:48:00.132Z,1027
2022-11-27T00:52:00.127Z,1027
2022-11-27T00:56:00.136Z,1027
2022-11-27T01:00:00.180Z,1027
2022-11-27T01:04:00.165Z,1027
2022-11-27T01:08:00.134Z,1027
2022-11-27T01:12:00.151Z,1027
2022-11-27T01:16:00.184Z,1027
2022-11-27T01:20:00.153Z,1027
2022-11-27T01:24:00.142Z,1027
2022-11-27T01:28:00.163Z,1027
2022-11-27T01:32:00.139Z,1026
2022-11-27T01:36:00.133Z,1026
2022-11-27T01:40:00.149Z,1026
2022-11-27T01:44:00.130Z,1026
2022-11-27T01:48:00.108Z,1026
2022-11-27T01:52:00.110Z,1026
2022-11-27T01:56:00.159Z,1026
2022-11-27T02:00:00.138Z,1026
2022-11-27T02:04:00.133Z,1026
2022-11-27T02:08:00.235Z,1026
2022-11-27T02:12:00.127Z,1026
2022-11-27T02:16:00.203Z,1026
2022-11-27T02:20:00.163Z,1026
2022-11-27T02:24:00.130Z,1026
2022-11-27T02:28:00.131Z,1026
2022-11-27T02:32:00.145Z,1026
2022-11-27T02:36:00.132Z,1026
2022-11-27T02:40:00.177Z,1026
2022-11-27T02:44:00.143Z,1026
2022-11-27T02:48:00.152Z,1026
2022-11-27T02:52:00.129Z,1026
2022-11-27T02:56:00.127Z,1026
2022-11-27T03:00:00.216Z,1026
2022-11-27T03:04:00.120Z,1026
2022-11-27T03:08:00.229Z,1026
2022-11-27T03:12:00.167Z,1026
2022-11-27T03:16:00.208Z,1026
2022-11-27T03:20:00.143Z,1026
2022-11-27T03:24:00.126Z,1026
2022-11-27T03:28:00.120Z,1026
2022-11-27T03:32:00.125Z,1026
2022-11-27T03:36:00.120Z,1026
2022-11-27T03:40:00.157Z,1026
2022-11-27T03:44:00.353Z,1026
2022-11-27T03:48:00.246Z,1026
2022-11-27T03:52:00.110Z,1026
2022-11-27T03:56:00.989Z,1026
2022-11-27T04:00:00.156Z,1026
2022-11-27T04:04:00.202Z,1026
2022-11-27T04:08:00.161Z,1026
2022-11-27T04:12:00.138Z,1026
2022-11-27T04:16:00.250Z,1026
2022-11-27T04:20:00.154Z,1026
2022-11-27T04:24:00.131Z,1026
2022-11-27T04:28:00.262Z,1026
2022-11-27T04:32:00.139Z,1026
2022-11-27T04:36:00.154Z,1026
2022-11-27T04:40:00.154Z,1026
2022-11-27T04:44:00.123Z,1026
2022-11-27T04:48:00.141Z,1026
2022-11-27T04:52:00.128Z,1026
2022-11-27T04:56:00.137Z,1026
2022-11-27T05:00:00.208Z,1026
2022-11-27T05:04:00.153Z,1026
2022-11-27T05:08:00.298Z,1026
2022-11-27T05:12:00.142Z,1026
2022-11-27T05:16:00.223Z,1026
2022-11-27T05:20:00.192Z,1026
2022-11-27T05:24:00.123Z,1026
2022-11-27T05:28:00.155Z,1026
2022-11-27T05:32:00.123Z,1026
2022-11-27T05:36:00.146Z,1026
2022-11-27T05:40:00.192Z,1026
2022-11-27T05:44:00.435Z,1026
2022-11-27T05:48:00.120Z,1026
2022-11-27T05:52:00.130Z,1026
2022-11-27T05:56:00.116Z,1026
2022-11-27T06:00:00.139Z,1026
2022-11-27T06:04:00.124Z,1026
2022-11-27T06:08:00.241Z,1026
2022-11-27T06:12:00.136Z,1026
2022-11-27T06:16:00.215Z,1026
2022-11-27T06:20:00.164Z,1026
2022-11-27T06:24:00.157Z,1026
2022-11-27T06:28:00.135Z,1026
2022-11-27T06:32:00.240Z,1026
2022-11-27T06:36:00.128Z,1025
2022-11-27T06:40:00.164Z,1026
2022-11-27T06:44:00.127Z,1026
2022-11-27T06:48:00.139Z,1026
2022-11-27T06:52:00.126Z,1026
2022-11-27T06:56:00.157Z,1026
2022-11-27T07:00:00.154Z,1026
2022-11-27T07:04:00.137Z,1026
2022-11-27T07:08:00.213Z,1026
2022-11-27T07:12:00.154Z,1026
2022-11-27T07:16:00.212Z,1026
2022-11-27T07:20:00.159Z,1026
2022-11-27T07:24:00.130Z,1026
2022-11-27T07:28:00.151Z,1026
2022-11-27T07:32:00.197Z,1025
2022-11-27T07:36:00.133Z,1026
2022-11-27T07:40:02.905Z,1026
2022-11-27T07:44:00.142Z,1025
2022-11-27T07:48:00.158Z,1025
2022-11-27T07:52:00.137Z,1025
2022-11-27T07:56:00.161Z,1025
2022-11-27T08:00:00.208Z,1025
2022-11-27T08:04:00.156Z,1025
2022-11-27T08:08:00.243Z,1025
2022-11-27T08:12:00.144Z,1025
2022-11-27T08:16:00.229Z,1025
2022-11-27T08:20:00.197Z,1025
2022-11-27T08:24:00.142Z,1025
2022-11-27T08:28:00.144Z,1025
2022-11-27T08:32:00.179Z,1025
2022-11-27T08:36:00.159Z,1025
2022-11-27T08:40:00.182Z,1025
2022-11-27T08:44:00.137Z,1025
2022-11-27T08:48:00.106Z,1025
2022-11-27T08:52:00.129Z,1025
2022-11-27T08:56:00.109Z,1025
2022-11-27T09:00:00.222Z,1025
2022-11-27T09:04:00.216Z,1025
2022-11-27T09:08:00.242Z,1025
2022-11-27T09:12:00.149Z,1025
2022-11-27T09:16:00.311Z,1025
2022-11-27T09:20:01.141Z,1025
2022-11-27T09:24:00.147Z,1025
2022-11-27T09:28:00.133Z,1025
2022-11-27T09:32:00.231Z,1025
2022-11-27T09:36:00.157Z,1025
2022-11-27T09:40:00.150Z,1025
2022-11-27T09:44:00.125Z,1025
2022-11-27T09:48:00.139Z,1025
2022-11-27T09:52:00.155Z,1025
2022-11-27T09:56:00.150Z,1025
2022-11-27T10:00:00.146Z,1025
2022-11-27T10:04:00.154Z,1025
2022-11-27T10:08:06.087Z,1025
2022-11-27T10:12:00.152Z,1025
2022-11-27T10:16:00.138Z,1025
2022-11-27T10:20:00.176Z,1025
2022-11-27T10:24:00.134Z,1025
2022-11-27T10:28:00.137Z,1025
2022-11-27T10:32:00.237Z,1025
2022-11-27T10:36:00.136Z,1025
2022-11-27T10:40:00.165Z,1025
2022-11-27T10:44:01.813Z,1024
2022-11-27T10:48:00.134Z,1024
2022-11-27T10:52:00.147Z,1024
2022-11-27T10:56:00.141Z,1024
2022-11-27T11:00:00.174Z,1024
2022-11-27T11:04:00.133Z,1024
2022-11-27T11:08:00.201Z,1024
2022-11-27T11:12:00.124Z,1024
2022-11-27T11:16:00.166Z,1024
2022-11-27T11:20:00.162Z,1024
2022-11-27T11:24:00.140Z,1024
2022-11-27T11:28:00.142Z,1024
2022-11-27T11:32:00.161Z,1024
2022-11-27T11:36:00.132Z,1024
2022-11-27T11:40:00.181Z,1024
2022-11-27T11:44:00.160Z,1024
2022-11-27T11:48:00.129Z,1024
2022-11-27T11:52:00.140Z,1024
2022-11-27T11:56:00.159Z,1024
2022-11-27T12:00:00.149Z,1024
2022-11-27T12:04:00.256Z,1024
2022-11-27T12:08:00.223Z,1024
2022-11-27T12:12:00.168Z,1024
2022-11-27T12:16:00.146Z,1024
2022-11-27T12:20:00.171Z,1024
2022-11-27T12:24:00.152Z,1024
2022-11-27T12:28:00.236Z,1024
2022-11-27T12:32:00.277Z,1024
2022-11-27T12:36:00.125Z,1024
2022-11-27T12:40:00.160Z,1023
2022-11-27T12:44:00.201Z,1023
2022-11-27T12:48:00.244Z,1023
2022-11-27T12:52:00.131Z,1023
2022-11-27T12:56:00.139Z,1023
2022-11-27T13:00:00.180Z,1023
2022-11-27T13:04:00.129Z,1023
2022-11-27T13:08:00.319Z,1023
2022-11-27T13:12:00.128Z,1023
2022-11-27T13:16:00.300Z,1023
2022-11-27T13:20:00.143Z,1023
2022-11-27T13:24:00.152Z,1023
2022-11-27T13:28:00.144Z,1023
2022-11-27T13:32:00.261Z,1023
2022-11-27T13:36:00.151Z,1023
2022-11-27T13:40:00.160Z,1023
2022-11-27T13:44:00.132Z,1023
2022-11-27T13:48:00.123Z,1023
2022-11-27T13:52:00.154Z,1023
2022-11-27T13:56:00.115Z,1022
2022-11-27T14:00:00.170Z,1022
2022-11-27T14:04:00.140Z,1022
2022-11-27T14:08:00.238Z,1022
2022-11-27T14:12:00.163Z,1022
2022-11-27T14:16:00.255Z,1022
2022-11-27T14:20:00.163Z,1022
2022-11-27T14:24:00.114Z,1022
2022-11-27T14:28:00.107Z,1022
2022-11-27T14:32:00.237Z,1022
2022-11-27T14:36:00.134Z,1022
2022-11-27T14:40:00.161Z,1022
2022-11-27T14:44:00.125Z,1022
2022-11-27T14:48:00.139Z,1022
2022-11-27T14:52:00.119Z,1022
2022-11-27T14:56:00.151Z,1022
2022-11-27T15:00:00.143Z,1022
2022-11-27T15:04:00.150Z,1022
2022-11-27T15:08:00.228Z,1022
2022-11-27T15:12:00.147Z,1022
2022-11-27T15:16:00.223Z,1022
2022-11-27T15:20:00.165Z,1022
2022-11-27T15:24:00.159Z,1022
2022-11-27T15:28:00.120Z,1022
2022-11-27T15:32:00.244Z,1022
2022-11-27T15:36:00.138Z,1022
2022-11-27T15:40:00.196Z,1022
2022-11-27T15:44:00.153Z,1022
2022-11-27T15:48:00.135Z,1022
2022-11-27T15:52:00.134Z,1022
2022-11-27T15:56:00.148Z,1022
2022-11-27T16:00:00.127Z,1022
2022-11-27T16:04:00.127Z,1022
2022-11-27T16:08:00.265Z,1022
2022-11-27T16:12:00.125Z,1021
2022-11-27T16:16:00.202Z,1022
2022-11-27T16:20:00.144Z,1021
2022-11-27T16:24:00.148Z,1021
2022-11-27T16:28:03.106Z,1022
2022-11-27T16:32:00.192Z,1021
2022-11-27T16:36:00.153Z,1021
2022-11-27T16:40:00.172Z,1021
2022-11-27T16:44:00.147Z,1021
2022-11-27T16:48:00.157Z,1021
2022-11-27T16:52:00.140Z,1021
2022-11-27T16:56:00.135Z,1021
2022-11-27T17:00:00.151Z,1021
2022-11-27T17:04:00.158Z,1021
2022-11-27T17:08:00.183Z,1021
2022-11-27T17:12:00.131Z,1021
2022-11-27T17:16:00.234Z,1021
2022-11-27T17:20:00.384Z,1021
2022-11-27T17:24:00.140Z,1021
2022-11-27T17:28:00.119Z,1021
2022-11-27T17:32:00.263Z,1021
2022-11-27T17:36:00.114Z,1021
2022-11-27T17:40:00.166Z,1021
2022-11-27T17:44:00.147Z,1021
2022-11-27T17:48:00.116Z,1021
2022-11-27T17:52:05.979Z,1021
2022-11-27T17:56:00.149Z,1021
2022-11-27T18:00:00.129Z,1021
2022-11-27T18:04:00.145Z,1021
2022-11-27T18:08:00.250Z,1020
2022-11-27T18:12:00.124Z,1020
2022-11-27T18:16:00.259Z,1020
2022-11-27T18:20:00.127Z,1020
2022-11-27T18:24:22.480Z,1020
2022-11-27T18:28:00.153Z,1020
2022-11-27T18:32:00.222Z,1020
2022-11-27T18:36:00.128Z,1020
2022-11-27T18:40:00.175Z,1020
2022-11-27T18:44:00.161Z,1020
2022-11-27T18:48:00.140Z,1020
2022-11-27T18:52:00.162Z,1020
2022-11-27T18:56:00.136Z,1020
2022-11-27T19:00:00.179Z,1020
2022-11-27T19:04:00.157Z,1020
2022-11-27T19:08:00.229Z,1020
2022-11-27T19:12:00.144Z,1020
2022-11-27T19:16:00.199Z,1020
2022-11-27T19:20:00.148Z,1020
2022-11-27T19:24:00.161Z,1020
2022-11-27T19:28:00.124Z,1020
2022-11-27T19:32:00.226Z,1020
2022-11-27T19:36:00.123Z,1020
2022-11-27T19:40:00.191Z,1020
2022-11-27T19:44:00.139Z,1020
2022-11-27T19:48:00.131Z,1020
2022-11-27T19:52:00.153Z,1020
2022-11-27T19:56:00.139Z,1020
2022-11-27T20:00:00.193Z,1020
2022-11-27T20:04:00.165Z,1020
2022-11-27T20:08:00.258Z,1020
2022-11-27T20:12:00.139Z,1020
2022-11-27T20:16:00.146Z,1020
2022-11-27T20:20:00.153Z,1020
2022-11-27T20:24:00.125Z,1020
2022-11-27T20:28:00.148Z,1020
2022-11-27T20:32:00.251Z,1020
2022-11-27T20:36:00.161Z,1020
2022-11-27T20:40:00.171Z,1020
2022-11-27T20:44:00.394Z,1020
2022-11-27T20:48:00.125Z,1020
2022-11-27T20:52:00.132Z,1020
2022-11-27T20:56:00.125Z,1020
2022-11-27T21:00:00.175Z,1020
2022-11-27T21:04:00.143Z,1020
2022-11-27T21:08:00.361Z,1020
2022-11-27T21:12:00.126Z,1019
2022-11-27T21:16:00.143Z,1019
2022-11-27T21:20:00.163Z,1019
2022-11-27T21:24:00.127Z,1019
2022-11-27T21:28:00.135Z,1019
2022-11-27T21:32:00.248Z,1019
2022-11-27T21:36:00.140Z,1019
2022-11-27T21:40:00.149Z,1019
2022-11-27T21:44:00.131Z,1019
2022-11-27T21:48:00.150Z,1019
2022-11-27T21:52:00.127Z,1019
2022-11-27T21:56:00.145Z,1019
2022-11-27T22:00:00.157Z,1019
2022-11-27T22:04:00.137Z,1019
2022-11-27T22:08:00.257Z,1019
2022-11-27T22:12:00.156Z,1019
2022-11-27T22:16:00.128Z,1019
2022-11-27T22:20:00.170Z,1019
2022-11-27T22:24:00.123Z,1019
2022-11-27T22:28:00.135Z,1019
2022-11-27T22:32:00.162Z,1019
2022-11-27T22:36:00.135Z,1019
2022-11-27T22:40:00.171Z,1019
2022-11-27T22:44:00.168Z,1019
2022-11-27T22:48:00.139Z,1019
2022-11-27T22:52:00.134Z,1019
2022-11-27T22:56:00.154Z,1019
2022-11-27T23:00:00.205Z,1019
2022-11-27T23:04:00.258Z,1019
2022-11-27T23:08:00.255Z,1019
2022-11-27T23:12:00.168Z,1019
2022-11-27T23:16:00.131Z,1019
2022-11-27T23:20:00.196Z,1018
2022-11-27T23:24:00.107Z,1018
2022-11-27T23:28:00.135Z,1018
2022-11-27T23:32:00.236Z,1018
2022-11-27T23:36:00.143Z,1018
2022-11-27T23:40:00.176Z,1018
2022-11-27T23:44:00.168Z,1018
2022-11-27T23:48:00.144Z,1018
2022-11-27T23:52:00.140Z,1018
2022-11-27T23:56:00.135Z,1018
